sensor_id;sensor_type;location;lat;lon;timestamp;temperature;humidity
4840;DHT22;2434;48.486;7.964;2023-02-13T00:01:08;3.90;62.30
4840;DHT22;2434;48.486;7.964;2023-02-13T00:03:36;3.70;63.60
4840;DHT22;2434;48.486;7.964;2023-02-13T00:06:05;3.40;65.30
4840;DHT22;2434;48.486;7.964;2023-02-13T00:08:33;3.30;67.60
4840;DHT22;2434;48.486;7.964;2023-02-13T00:11:02;3.20;68.70
4840;DHT22;2434;48.486;7.964;2023-02-13T00:13:31;3.30;68.80
4840;DHT22;2434;48.486;7.964;2023-02-13T00:16:03;3.50;66.70
4840;DHT22;2434;48.486;7.964;2023-02-13T00:18:34;3.50;66.00
4840;DHT22;2434;48.486;7.964;2023-02-13T00:21:04;3.40;66.10
4840;DHT22;2434;48.486;7.964;2023-02-13T00:23:33;3.40;67.10
4840;DHT22;2434;48.486;7.964;2023-02-13T00:26:05;3.50;66.90
4840;DHT22;2434;48.486;7.964;2023-02-13T00:28:33;3.60;65.70
4840;DHT22;2434;48.486;7.964;2023-02-13T00:31:06;3.50;66.40
4840;DHT22;2434;48.486;7.964;2023-02-13T00:33:34;3.50;66.10
4840;DHT22;2434;48.486;7.964;2023-02-13T00:36:05;3.50;66.70
4840;DHT22;2434;48.486;7.964;2023-02-13T00:38:33;3.60;65.80
4840;DHT22;2434;48.486;7.964;2023-02-13T00:41:01;3.70;64.80
4840;DHT22;2434;48.486;7.964;2023-02-13T00:43:30;3.70;63.90
4840;DHT22;2434;48.486;7.964;2023-02-13T00:45:58;3.70;63.70
4840;DHT22;2434;48.486;7.964;2023-02-13T00:48:29;3.60;64.00
4840;DHT22;2434;48.486;7.964;2023-02-13T00:50:57;3.40;65.20
4840;DHT22;2434;48.486;7.964;2023-02-13T00:53:28;3.40;66.40
4840;DHT22;2434;48.486;7.964;2023-02-13T00:55:57;3.30;67.30
4840;DHT22;2434;48.486;7.964;2023-02-13T00:58:25;3.20;67.80
4840;DHT22;2434;48.486;7.964;2023-02-13T01:00:53;3.10;69.50
4840;DHT22;2434;48.486;7.964;2023-02-13T01:03:23;3.30;69.00
4840;DHT22;2434;48.486;7.964;2023-02-13T01:05:55;3.40;67.10
4840;DHT22;2434;48.486;7.964;2023-02-13T01:08:24;3.40;66.20
4840;DHT22;2434;48.486;7.964;2023-02-13T01:10:54;3.50;65.20
4840;DHT22;2434;48.486;7.964;2023-02-13T01:13:23;3.50;64.20
4840;DHT22;2434;48.486;7.964;2023-02-13T01:15:52;3.50;63.70
4840;DHT22;2434;48.486;7.964;2023-02-13T01:18:21;3.50;63.30
4840;DHT22;2434;48.486;7.964;2023-02-13T01:20:57;3.60;63.20
4840;DHT22;2434;48.486;7.964;2023-02-13T01:23:29;3.50;63.30
4840;DHT22;2434;48.486;7.964;2023-02-13T01:25:58;3.40;63.90
4840;DHT22;2434;48.486;7.964;2023-02-13T01:28:26;3.40;63.40
4840;DHT22;2434;48.486;7.964;2023-02-13T01:30:55;3.40;62.90
4840;DHT22;2434;48.486;7.964;2023-02-13T01:33:26;3.30;63.70
4840;DHT22;2434;48.486;7.964;2023-02-13T01:35:58;3.10;64.60
4840;DHT22;2434;48.486;7.964;2023-02-13T01:38:26;3.10;65.70
4840;DHT22;2434;48.486;7.964;2023-02-13T01:40:55;3.10;65.70
4840;DHT22;2434;48.486;7.964;2023-02-13T01:43:23;3.10;66.10
4840;DHT22;2434;48.486;7.964;2023-02-13T01:45:54;3.00;65.90
4840;DHT22;2434;48.486;7.964;2023-02-13T01:48:24;3.00;66.60
4840;DHT22;2434;48.486;7.964;2023-02-13T01:50:59;3.00;66.40
4840;DHT22;2434;48.486;7.964;2023-02-13T01:53:32;3.00;65.70
4840;DHT22;2434;48.486;7.964;2023-02-13T01:56:05;3.00;65.00
4840;DHT22;2434;48.486;7.964;2023-02-13T01:58:37;3.10;64.50
4840;DHT22;2434;48.486;7.964;2023-02-13T02:01:07;3.10;64.00
4840;DHT22;2434;48.486;7.964;2023-02-13T02:03:38;3.20;63.50
4840;DHT22;2434;48.486;7.964;2023-02-13T02:06:13;3.20;63.50
4840;DHT22;2434;48.486;7.964;2023-02-13T02:08:44;3.10;63.30
4840;DHT22;2434;48.486;7.964;2023-02-13T02:11:24;3.00;64.50
4840;DHT22;2434;48.486;7.964;2023-02-13T02:13:53;3.00;64.30
4840;DHT22;2434;48.486;7.964;2023-02-13T02:16:31;3.00;64.20
4840;DHT22;2434;48.486;7.964;2023-02-13T02:19:04;3.00;63.80
4840;DHT22;2434;48.486;7.964;2023-02-13T02:25:13;3.00;64.40
4840;DHT22;2434;48.486;7.964;2023-02-13T02:34:03;2.90;64.20
4840;DHT22;2434;48.486;7.964;2023-02-13T02:36:48;2.90;65.20
4840;DHT22;2434;48.486;7.964;2023-02-13T02:39:27;2.90;65.00
4840;DHT22;2434;48.486;7.964;2023-02-13T02:42:05;2.90;63.90
4840;DHT22;2434;48.486;7.964;2023-02-13T02:44:41;2.90;63.40
4840;DHT22;2434;48.486;7.964;2023-02-13T02:47:18;2.90;63.40
4840;DHT22;2434;48.486;7.964;2023-02-13T02:50:25;2.80;63.00
4840;DHT22;2434;48.486;7.964;2023-02-13T02:53:05;2.90;63.10
4840;DHT22;2434;48.486;7.964;2023-02-13T02:55:41;2.90;63.50
4840;DHT22;2434;48.486;7.964;2023-02-13T02:58:18;2.90;63.40
4840;DHT22;2434;48.486;7.964;2023-02-13T03:01:08;2.80;63.30
4840;DHT22;2434;48.486;7.964;2023-02-13T03:03:58;2.80;63.20
4840;DHT22;2434;48.486;7.964;2023-02-13T03:06:49;2.80;63.50
4840;DHT22;2434;48.486;7.964;2023-02-13T03:09:21;2.60;64.60
4840;DHT22;2434;48.486;7.964;2023-02-13T03:12:08;2.60;65.60
4840;DHT22;2434;48.486;7.964;2023-02-13T03:14:55;2.60;64.80
4840;DHT22;2434;48.486;7.964;2023-02-13T03:17:24;2.60;64.50
4840;DHT22;2434;48.486;7.964;2023-02-13T03:20:14;2.60;65.20
4840;DHT22;2434;48.486;7.964;2023-02-13T03:23:29;2.50;65.20
4840;DHT22;2434;48.486;7.964;2023-02-13T03:26:20;2.60;65.10
4840;DHT22;2434;48.486;7.964;2023-02-13T03:29:07;2.60;64.00
4840;DHT22;2434;48.486;7.964;2023-02-13T03:31:59;2.60;63.70
4840;DHT22;2434;48.486;7.964;2023-02-13T03:34:34;2.50;63.70
4840;DHT22;2434;48.486;7.964;2023-02-13T03:37:22;2.50;64.30
4840;DHT22;2434;48.486;7.964;2023-02-13T03:40:16;2.50;63.50
4840;DHT22;2434;48.486;7.964;2023-02-13T03:42:47;2.60;63.90
4840;DHT22;2434;48.486;7.964;2023-02-13T03:45:22;2.50;63.90
4840;DHT22;2434;48.486;7.964;2023-02-13T03:48:10;2.40;63.50
4840;DHT22;2434;48.486;7.964;2023-02-13T03:51:20;2.40;63.70
4840;DHT22;2434;48.486;7.964;2023-02-13T03:53:52;2.40;64.00
4840;DHT22;2434;48.486;7.964;2023-02-13T03:56:25;2.40;63.90
4840;DHT22;2434;48.486;7.964;2023-02-13T03:59:19;2.40;64.00
4840;DHT22;2434;48.486;7.964;2023-02-13T04:01:57;2.40;64.20
4840;DHT22;2434;48.486;7.964;2023-02-13T04:04:33;2.30;64.10
4840;DHT22;2434;48.486;7.964;2023-02-13T04:07:05;2.30;64.20
4840;DHT22;2434;48.486;7.964;2023-02-13T04:09:37;2.30;64.50
4840;DHT22;2434;48.486;7.964;2023-02-13T04:12:11;2.40;64.50
4840;DHT22;2434;48.486;7.964;2023-02-13T04:14:47;2.30;65.10
4840;DHT22;2434;48.486;7.964;2023-02-13T04:17:19;2.30;64.80
4840;DHT22;2434;48.486;7.964;2023-02-13T04:19:48;2.30;64.40
4840;DHT22;2434;48.486;7.964;2023-02-13T04:22:18;2.20;64.50
4840;DHT22;2434;48.486;7.964;2023-02-13T04:24:46;2.20;65.20
4840;DHT22;2434;48.486;7.964;2023-02-13T04:27:16;2.20;64.70
4840;DHT22;2434;48.486;7.964;2023-02-13T04:29:45;2.20;65.50
4840;DHT22;2434;48.486;7.964;2023-02-13T04:32:13;2.20;65.10
4840;DHT22;2434;48.486;7.964;2023-02-13T04:34:42;2.20;65.10
4840;DHT22;2434;48.486;7.964;2023-02-13T04:37:11;2.20;64.80
4840;DHT22;2434;48.486;7.964;2023-02-13T04:39:39;2.20;63.90
4840;DHT22;2434;48.486;7.964;2023-02-13T04:42:07;2.20;64.00
4840;DHT22;2434;48.486;7.964;2023-02-13T04:44:36;2.20;63.80
4840;DHT22;2434;48.486;7.964;2023-02-13T04:47:04;2.20;64.50
4840;DHT22;2434;48.486;7.964;2023-02-13T04:49:32;2.20;64.00
4840;DHT22;2434;48.486;7.964;2023-02-13T04:52:01;2.20;63.60
4840;DHT22;2434;48.486;7.964;2023-02-13T04:54:29;2.20;63.40
4840;DHT22;2434;48.486;7.964;2023-02-13T04:56:57;2.20;63.60
4840;DHT22;2434;48.486;7.964;2023-02-13T04:59:25;2.10;63.50
4840;DHT22;2434;48.486;7.964;2023-02-13T05:01:54;2.10;63.40
4840;DHT22;2434;48.486;7.964;2023-02-13T05:04:24;2.10;63.50
4840;DHT22;2434;48.486;7.964;2023-02-13T05:06:53;2.20;63.70
4840;DHT22;2434;48.486;7.964;2023-02-13T05:09:21;2.10;64.10
4840;DHT22;2434;48.486;7.964;2023-02-13T05:11:50;2.00;64.30
4840;DHT22;2434;48.486;7.964;2023-02-13T05:14:19;2.00;64.50
4840;DHT22;2434;48.486;7.964;2023-02-13T05:16:47;2.00;64.40
4840;DHT22;2434;48.486;7.964;2023-02-13T05:19:17;2.00;64.60
4840;DHT22;2434;48.486;7.964;2023-02-13T05:21:45;1.90;64.70
4840;DHT22;2434;48.486;7.964;2023-02-13T05:24:31;1.90;64.40
4840;DHT22;2434;48.486;7.964;2023-02-13T05:26:59;2.00;64.20
4840;DHT22;2434;48.486;7.964;2023-02-13T05:29:28;1.90;64.00
4840;DHT22;2434;48.486;7.964;2023-02-13T05:31:57;2.00;63.90
4840;DHT22;2434;48.486;7.964;2023-02-13T05:34:27;1.90;63.60
4840;DHT22;2434;48.486;7.964;2023-02-13T05:36:56;1.80;64.80
4840;DHT22;2434;48.486;7.964;2023-02-13T05:39:24;1.80;64.70
4840;DHT22;2434;48.486;7.964;2023-02-13T05:41:52;1.80;64.90
4840;DHT22;2434;48.486;7.964;2023-02-13T05:44:20;1.80;65.00
4840;DHT22;2434;48.486;7.964;2023-02-13T05:46:48;1.80;64.80
4840;DHT22;2434;48.486;7.964;2023-02-13T05:49:19;1.80;64.80
4840;DHT22;2434;48.486;7.964;2023-02-13T05:51:50;1.80;65.00
4840;DHT22;2434;48.486;7.964;2023-02-13T05:54:18;1.80;64.90
4840;DHT22;2434;48.486;7.964;2023-02-13T05:56:47;1.80;65.10
4840;DHT22;2434;48.486;7.964;2023-02-13T05:59:15;1.80;65.40
4840;DHT22;2434;48.486;7.964;2023-02-13T06:01:43;1.80;65.90
4840;DHT22;2434;48.486;7.964;2023-02-13T06:04:11;1.70;66.60
4840;DHT22;2434;48.486;7.964;2023-02-13T06:06:39;1.80;66.20
4840;DHT22;2434;48.486;7.964;2023-02-13T06:09:09;1.70;67.50
4840;DHT22;2434;48.486;7.964;2023-02-13T06:11:37;1.70;68.60
4840;DHT22;2434;48.486;7.964;2023-02-13T06:14:05;1.70;68.60
4840;DHT22;2434;48.486;7.964;2023-02-13T06:16:33;1.80;68.60
4840;DHT22;2434;48.486;7.964;2023-02-13T06:19:01;1.80;68.40
4840;DHT22;2434;48.486;7.964;2023-02-13T06:21:29;1.80;69.00
4840;DHT22;2434;48.486;7.964;2023-02-13T06:23:59;1.90;69.90
4840;DHT22;2434;48.486;7.964;2023-02-13T06:26:28;1.80;70.10
4840;DHT22;2434;48.486;7.964;2023-02-13T06:28:56;1.80;70.50
4840;DHT22;2434;48.486;7.964;2023-02-13T06:31:24;1.90;70.50
4840;DHT22;2434;48.486;7.964;2023-02-13T06:33:53;1.80;71.30
4840;DHT22;2434;48.486;7.964;2023-02-13T06:36:21;1.90;70.90
4840;DHT22;2434;48.486;7.964;2023-02-13T06:38:49;1.90;70.50
4840;DHT22;2434;48.486;7.964;2023-02-13T06:41:17;1.80;71.00
4840;DHT22;2434;48.486;7.964;2023-02-13T06:43:47;1.80;71.30
4840;DHT22;2434;48.486;7.964;2023-02-13T06:46:15;1.70;72.50
4840;DHT22;2434;48.486;7.964;2023-02-13T06:48:43;1.80;72.60
4840;DHT22;2434;48.486;7.964;2023-02-13T06:51:11;1.70;72.20
4840;DHT22;2434;48.486;7.964;2023-02-13T06:53:39;1.70;72.40
4840;DHT22;2434;48.486;7.964;2023-02-13T06:56:08;1.70;72.60
4840;DHT22;2434;48.486;7.964;2023-02-13T06:58:36;1.80;72.80
4840;DHT22;2434;48.486;7.964;2023-02-13T07:01:07;1.80;73.00
4840;DHT22;2434;48.486;7.964;2023-02-13T07:03:35;1.70;73.50
4840;DHT22;2434;48.486;7.964;2023-02-13T07:06:03;1.70;74.40
4840;DHT22;2434;48.486;7.964;2023-02-13T07:08:32;1.70;74.80
4840;DHT22;2434;48.486;7.964;2023-02-13T07:11:00;1.70;75.10
4840;DHT22;2434;48.486;7.964;2023-02-13T07:13:28;1.70;75.40
4840;DHT22;2434;48.486;7.964;2023-02-13T07:15:59;1.70;75.80
4840;DHT22;2434;48.486;7.964;2023-02-13T07:18:29;1.60;76.60
4840;DHT22;2434;48.486;7.964;2023-02-13T07:20:57;1.60;76.60
4840;DHT22;2434;48.486;7.964;2023-02-13T07:23:25;1.70;76.60
4840;DHT22;2434;48.486;7.964;2023-02-13T07:25:53;1.70;76.60
4840;DHT22;2434;48.486;7.964;2023-02-13T07:28:22;1.70;76.80
4840;DHT22;2434;48.486;7.964;2023-02-13T07:30:50;1.70;77.20
4840;DHT22;2434;48.486;7.964;2023-02-13T07:33:22;1.70;77.90
4840;DHT22;2434;48.486;7.964;2023-02-13T07:35:52;1.70;78.70
4840;DHT22;2434;48.486;7.964;2023-02-13T07:38:20;1.70;79.50
4840;DHT22;2434;48.486;7.964;2023-02-13T07:40:48;1.70;79.80
4840;DHT22;2434;48.486;7.964;2023-02-13T07:43:16;1.70;80.40
4840;DHT22;2434;48.486;7.964;2023-02-13T07:45:44;1.60;80.90
4840;DHT22;2434;48.486;7.964;2023-02-13T07:48:13;1.70;81.30
4840;DHT22;2434;48.486;7.964;2023-02-13T07:50:41;1.70;81.70
4840;DHT22;2434;48.486;7.964;2023-02-13T07:53:11;1.70;81.90
4840;DHT22;2434;48.486;7.964;2023-02-13T07:55:39;1.70;82.40
4840;DHT22;2434;48.486;7.964;2023-02-13T07:58:07;1.70;82.50
4840;DHT22;2434;48.486;7.964;2023-02-13T08:00:35;1.70;82.40
4840;DHT22;2434;48.486;7.964;2023-02-13T08:03:03;1.80;82.60
4840;DHT22;2434;48.486;7.964;2023-02-13T08:05:33;1.80;83.10
4840;DHT22;2434;48.486;7.964;2023-02-13T08:08:01;1.70;84.20
4840;DHT22;2434;48.486;7.964;2023-02-13T08:10:31;1.80;83.90
4840;DHT22;2434;48.486;7.964;2023-02-13T08:13:17;1.80;83.90
4840;DHT22;2434;48.486;7.964;2023-02-13T08:15:45;1.90;84.20
4840;DHT22;2434;48.486;7.964;2023-02-13T08:18:13;1.90;84.00
4840;DHT22;2434;48.486;7.964;2023-02-13T08:20:45;1.90;84.00
4840;DHT22;2434;48.486;7.964;2023-02-13T08:23:14;1.90;84.40
4840;DHT22;2434;48.486;7.964;2023-02-13T08:25:44;1.90;84.50
4840;DHT22;2434;48.486;7.964;2023-02-13T08:28:13;1.90;84.80
4840;DHT22;2434;48.486;7.964;2023-02-13T08:30:41;1.90;84.80
4840;DHT22;2434;48.486;7.964;2023-02-13T08:33:10;1.90;85.10
4840;DHT22;2434;48.486;7.964;2023-02-13T08:35:38;1.90;86.30
4840;DHT22;2434;48.486;7.964;2023-02-13T08:38:06;1.90;86.20
4840;DHT22;2434;48.486;7.964;2023-02-13T08:40:34;1.90;86.40
4840;DHT22;2434;48.486;7.964;2023-02-13T08:43:04;2.00;86.20
4840;DHT22;2434;48.486;7.964;2023-02-13T08:45:33;2.00;87.00
4840;DHT22;2434;48.486;7.964;2023-02-13T08:48:02;2.00;86.70
4840;DHT22;2434;48.486;7.964;2023-02-13T08:50:31;2.00;86.30
4840;DHT22;2434;48.486;7.964;2023-02-13T08:53:01;2.10;86.40
4840;DHT22;2434;48.486;7.964;2023-02-13T08:55:29;2.10;86.30
4840;DHT22;2434;48.486;7.964;2023-02-13T08:57:59;2.20;86.40
4840;DHT22;2434;48.486;7.964;2023-02-13T09:00:29;2.20;86.40
4840;DHT22;2434;48.486;7.964;2023-02-13T09:02:59;2.20;86.30
4840;DHT22;2434;48.486;7.964;2023-02-13T09:05:29;2.20;86.50
4840;DHT22;2434;48.486;7.964;2023-02-13T09:07:59;2.30;86.10
4840;DHT22;2434;48.486;7.964;2023-02-13T09:10:29;2.30;85.80
4840;DHT22;2434;48.486;7.964;2023-02-13T09:12:57;2.20;87.40
4840;DHT22;2434;48.486;7.964;2023-02-13T09:15:27;2.00;87.00
4840;DHT22;2434;48.486;7.964;2023-02-13T09:17:56;1.60;91.30
4840;DHT22;2434;48.486;7.964;2023-02-13T09:20:25;1.70;93.90
4840;DHT22;2434;48.486;7.964;2023-02-13T09:22:54;1.40;94.90
4840;DHT22;2434;48.486;7.964;2023-02-13T09:25:23;1.40;97.70
4840;DHT22;2434;48.486;7.964;2023-02-13T09:27:51;1.70;97.10
4840;DHT22;2434;48.486;7.964;2023-02-13T09:30:19;1.60;97.50
4840;DHT22;2434;48.486;7.964;2023-02-13T09:32:50;1.50;98.10
4840;DHT22;2434;48.486;7.964;2023-02-13T09:35:21;1.80;98.20
4840;DHT22;2434;48.486;7.964;2023-02-13T09:37:50;2.00;95.60
4840;DHT22;2434;48.486;7.964;2023-02-13T10:00:07;1.50;99.90
4840;DHT22;2434;48.486;7.964;2023-02-13T10:02:52;1.50;99.90
4840;DHT22;2434;48.486;7.964;2023-02-13T10:05:34;1.50;99.90
4840;DHT22;2434;48.486;7.964;2023-02-13T10:08:11;1.60;99.90
4840;DHT22;2434;48.486;7.964;2023-02-13T10:10:50;1.50;99.90
4840;DHT22;2434;48.486;7.964;2023-02-13T10:13:27;1.60;99.90
4840;DHT22;2434;48.486;7.964;2023-02-13T10:16:03;1.50;99.90
4840;DHT22;2434;48.486;7.964;2023-02-13T10:18:42;1.60;99.90
4840;DHT22;2434;48.486;7.964;2023-02-13T10:21:12;1.50;99.90
4840;DHT22;2434;48.486;7.964;2023-02-13T10:23:44;1.60;99.90
4840;DHT22;2434;48.486;7.964;2023-02-13T10:26:18;1.50;99.90
4840;DHT22;2434;48.486;7.964;2023-02-13T10:28:50;1.70;99.90
4840;DHT22;2434;48.486;7.964;2023-02-13T10:31:41;1.70;99.90
4840;DHT22;2434;48.486;7.964;2023-02-13T10:34:14;1.60;99.90
4840;DHT22;2434;48.486;7.964;2023-02-13T10:36:44;1.50;99.90
4840;DHT22;2434;48.486;7.964;2023-02-13T10:39:21;1.60;99.90
4840;DHT22;2434;48.486;7.964;2023-02-13T10:41:52;1.80;99.90
4840;DHT22;2434;48.486;7.964;2023-02-13T10:44:36;1.60;99.90
4840;DHT22;2434;48.486;7.964;2023-02-13T10:47:17;1.70;99.90
4840;DHT22;2434;48.486;7.964;2023-02-13T10:50:01;1.70;99.90
4840;DHT22;2434;48.486;7.964;2023-02-13T10:52:38;1.50;99.90
4840;DHT22;2434;48.486;7.964;2023-02-13T10:55:25;1.60;99.90
4840;DHT22;2434;48.486;7.964;2023-02-13T10:58:06;1.50;99.90
4840;DHT22;2434;48.486;7.964;2023-02-13T11:00:37;1.50;99.90
4840;DHT22;2434;48.486;7.964;2023-02-13T11:03:17;1.40;99.90
4840;DHT22;2434;48.486;7.964;2023-02-13T11:05:45;1.40;99.90
4840;DHT22;2434;48.486;7.964;2023-02-13T11:08:19;1.50;99.90
4840;DHT22;2434;48.486;7.964;2023-02-13T11:10:48;1.60;99.90
4840;DHT22;2434;48.486;7.964;2023-02-13T11:13:18;1.60;99.90
4840;DHT22;2434;48.486;7.964;2023-02-13T11:15:58;1.50;99.90
4840;DHT22;2434;48.486;7.964;2023-02-13T11:18:31;1.60;99.90
4840;DHT22;2434;48.486;7.964;2023-02-13T11:21:04;1.50;99.90
4840;DHT22;2434;48.486;7.964;2023-02-13T11:23:38;1.50;99.90
4840;DHT22;2434;48.486;7.964;2023-02-13T11:26:09;1.50;99.90
4840;DHT22;2434;48.486;7.964;2023-02-13T11:28:44;1.50;99.90
4840;DHT22;2434;48.486;7.964;2023-02-13T11:31:22;1.60;99.90
4840;DHT22;2434;48.486;7.964;2023-02-13T11:33:53;1.70;99.90
4840;DHT22;2434;48.486;7.964;2023-02-13T11:36:26;1.60;99.90
4840;DHT22;2434;48.486;7.964;2023-02-13T11:39:00;1.70;99.90
4840;DHT22;2434;48.486;7.964;2023-02-13T11:41:30;1.50;99.90
4840;DHT22;2434;48.486;7.964;2023-02-13T11:44:00;2.10;99.90
4840;DHT22;2434;48.486;7.964;2023-02-13T11:46:42;1.80;99.90
4840;DHT22;2434;48.486;7.964;2023-02-13T11:49:18;1.80;99.90
4840;DHT22;2434;48.486;7.964;2023-02-13T11:51:48;1.90;99.90
4840;DHT22;2434;48.486;7.964;2023-02-13T11:54:28;1.90;99.90
4840;DHT22;2434;48.486;7.964;2023-02-13T11:56:59;2.00;99.90
4840;DHT22;2434;48.486;7.964;2023-02-13T11:59:38;1.80;99.90
4840;DHT22;2434;48.486;7.964;2023-02-13T12:02:15;1.80;99.90
4840;DHT22;2434;48.486;7.964;2023-02-13T12:04:47;1.90;99.90
4840;DHT22;2434;48.486;7.964;2023-02-13T12:07:19;1.90;99.90
4840;DHT22;2434;48.486;7.964;2023-02-13T12:09:52;1.80;99.90
4840;DHT22;2434;48.486;7.964;2023-02-13T12:12:26;1.90;99.90
4840;DHT22;2434;48.486;7.964;2023-02-13T12:14:56;1.90;99.90
4840;DHT22;2434;48.486;7.964;2023-02-13T12:17:26;2.00;99.90
4840;DHT22;2434;48.486;7.964;2023-02-13T12:19:59;2.00;99.90
4840;DHT22;2434;48.486;7.964;2023-02-13T12:22:35;2.00;99.90
4840;DHT22;2434;48.486;7.964;2023-02-13T12:25:30;1.90;99.90
4840;DHT22;2434;48.486;7.964;2023-02-13T12:28:12;2.00;99.90
4840;DHT22;2434;48.486;7.964;2023-02-13T12:31:16;1.90;99.90
4840;DHT22;2434;48.486;7.964;2023-02-13T12:36:54;2.00;99.90
4840;DHT22;2434;48.486;7.964;2023-02-13T12:39:32;2.00;99.90
4840;DHT22;2434;48.486;7.964;2023-02-13T12:42:19;2.00;99.90
4840;DHT22;2434;48.486;7.964;2023-02-13T12:45:01;2.00;99.90
4840;DHT22;2434;48.486;7.964;2023-02-13T12:47:36;2.10;99.90
4840;DHT22;2434;48.486;7.964;2023-02-13T12:50:36;2.20;99.90
4840;DHT22;2434;48.486;7.964;2023-02-13T12:53:26;2.20;99.90
4840;DHT22;2434;48.486;7.964;2023-02-13T12:59:04;2.30;99.90
4840;DHT22;2434;48.486;7.964;2023-02-13T13:01:52;2.30;99.90
4840;DHT22;2434;48.486;7.964;2023-02-13T13:04:27;2.20;99.90
4840;DHT22;2434;48.486;7.964;2023-02-13T13:07:11;2.20;99.90
4840;DHT22;2434;48.486;7.964;2023-02-13T13:09:55;2.20;99.90
4840;DHT22;2434;48.486;7.964;2023-02-13T13:12:37;2.10;99.90
4840;DHT22;2434;48.486;7.964;2023-02-13T13:15:13;2.30;99.90
4840;DHT22;2434;48.486;7.964;2023-02-13T13:17:56;2.10;99.90
4840;DHT22;2434;48.486;7.964;2023-02-13T13:20:54;2.10;99.90
4840;DHT22;2434;48.486;7.964;2023-02-13T13:23:28;2.20;99.90
4840;DHT22;2434;48.486;7.964;2023-02-13T13:26:10;2.30;99.90
4840;DHT22;2434;48.486;7.964;2023-02-13T13:28:43;2.20;99.90
4840;DHT22;2434;48.486;7.964;2023-02-13T13:31:13;2.20;99.90
4840;DHT22;2434;48.486;7.964;2023-02-13T13:33:45;2.20;99.90
4840;DHT22;2434;48.486;7.964;2023-02-13T13:36:20;2.40;99.90
4840;DHT22;2434;48.486;7.964;2023-02-13T13:38:57;2.40;99.90
4840;DHT22;2434;48.486;7.964;2023-02-13T13:41:37;2.40;99.90
4840;DHT22;2434;48.486;7.964;2023-02-13T13:47:39;2.30;99.90
4840;DHT22;2434;48.486;7.964;2023-02-13T13:50:19;2.10;99.90
4840;DHT22;2434;48.486;7.964;2023-02-13T13:53:08;2.20;99.90
4840;DHT22;2434;48.486;7.964;2023-02-13T13:55:59;2.20;99.90
4840;DHT22;2434;48.486;7.964;2023-02-13T13:58:38;2.40;99.90
4840;DHT22;2434;48.486;7.964;2023-02-13T14:01:25;2.30;99.90
4840;DHT22;2434;48.486;7.964;2023-02-13T14:03:56;2.40;99.90
4840;DHT22;2434;48.486;7.964;2023-02-13T14:06:27;2.40;99.90
4840;DHT22;2434;48.486;7.964;2023-02-13T14:09:01;2.50;99.90
4840;DHT22;2434;48.486;7.964;2023-02-13T14:11:33;2.40;99.90
4840;DHT22;2434;48.486;7.964;2023-02-13T14:20:33;2.50;99.90
4840;DHT22;2434;48.486;7.964;2023-02-13T14:26:27;2.70;99.90
4840;DHT22;2434;48.486;7.964;2023-02-13T14:29:27;2.60;99.90
4840;DHT22;2434;48.486;7.964;2023-02-13T14:31:59;2.60;99.90
4840;DHT22;2434;48.486;7.964;2023-02-13T14:34:30;2.60;99.90
4840;DHT22;2434;48.486;7.964;2023-02-13T14:37:16;2.50;99.90
4840;DHT22;2434;48.486;7.964;2023-02-13T14:42:53;2.60;99.90
4840;DHT22;2434;48.486;7.964;2023-02-13T14:45:27;2.60;99.90
4840;DHT22;2434;48.486;7.964;2023-02-13T14:48:04;2.60;99.90
4840;DHT22;2434;48.486;7.964;2023-02-13T14:50:42;2.70;99.90
4840;DHT22;2434;48.486;7.964;2023-02-13T14:53:20;2.70;99.90
4840;DHT22;2434;48.486;7.964;2023-02-13T14:55:55;2.60;99.90
4840;DHT22;2434;48.486;7.964;2023-02-13T14:58:28;2.70;99.90
4840;DHT22;2434;48.486;7.964;2023-02-13T15:01:02;2.80;99.90
4840;DHT22;2434;48.486;7.964;2023-02-13T15:03:36;2.80;99.90
4840;DHT22;2434;48.486;7.964;2023-02-13T15:06:13;2.80;99.90
4840;DHT22;2434;48.486;7.964;2023-02-13T15:08:46;2.70;99.90
4840;DHT22;2434;48.486;7.964;2023-02-13T15:11:30;2.70;99.90
4840;DHT22;2434;48.486;7.964;2023-02-13T15:14:15;2.70;99.90
4840;DHT22;2434;48.486;7.964;2023-02-13T15:16:48;2.80;99.90
4840;DHT22;2434;48.486;7.964;2023-02-13T15:19:18;2.70;99.90
4840;DHT22;2434;48.486;7.964;2023-02-13T15:21:53;2.70;99.90
4840;DHT22;2434;48.486;7.964;2023-02-13T15:24:22;2.70;99.90
4840;DHT22;2434;48.486;7.964;2023-02-13T15:26:59;2.80;99.90
4840;DHT22;2434;48.486;7.964;2023-02-13T15:29:29;2.80;99.90
4840;DHT22;2434;48.486;7.964;2023-02-13T15:32:23;2.80;99.90
4840;DHT22;2434;48.486;7.964;2023-02-13T15:34:53;2.80;99.90
4840;DHT22;2434;48.486;7.964;2023-02-13T15:37:22;2.80;99.90
4840;DHT22;2434;48.486;7.964;2023-02-13T15:39:50;2.80;99.90
4840;DHT22;2434;48.486;7.964;2023-02-13T15:42:19;2.80;99.90
4840;DHT22;2434;48.486;7.964;2023-02-13T15:44:50;2.80;99.90
4840;DHT22;2434;48.486;7.964;2023-02-13T15:47:26;2.80;99.90
4840;DHT22;2434;48.486;7.964;2023-02-13T15:49:55;2.80;99.90
4840;DHT22;2434;48.486;7.964;2023-02-13T15:52:29;2.70;99.90
4840;DHT22;2434;48.486;7.964;2023-02-13T15:54:58;3.00;99.90
4840;DHT22;2434;48.486;7.964;2023-02-13T15:57:27;3.10;99.90
4840;DHT22;2434;48.486;7.964;2023-02-13T15:59:56;3.10;99.90
4840;DHT22;2434;48.486;7.964;2023-02-13T16:02:32;3.30;99.90
4840;DHT22;2434;48.486;7.964;2023-02-13T16:05:02;3.20;99.90
4840;DHT22;2434;48.486;7.964;2023-02-13T16:07:30;3.10;99.90
4840;DHT22;2434;48.486;7.964;2023-02-13T16:10:14;3.20;99.90
4840;DHT22;2434;48.486;7.964;2023-02-13T16:12:45;3.30;99.90
4840;DHT22;2434;48.486;7.964;2023-02-13T16:15:16;3.20;99.90
4840;DHT22;2434;48.486;7.964;2023-02-13T16:17:47;3.30;99.90
4840;DHT22;2434;48.486;7.964;2023-02-13T16:20:18;3.50;99.90
4840;DHT22;2434;48.486;7.964;2023-02-13T16:22:49;3.70;99.90
4840;DHT22;2434;48.486;7.964;2023-02-13T16:25:22;3.40;99.90
4840;DHT22;2434;48.486;7.964;2023-02-13T16:27:54;3.30;99.90
4840;DHT22;2434;48.486;7.964;2023-02-13T16:30:30;3.30;99.90
4840;DHT22;2434;48.486;7.964;2023-02-13T16:33:19;3.30;99.90
4840;DHT22;2434;48.486;7.964;2023-02-13T16:35:49;3.30;99.90
4840;DHT22;2434;48.486;7.964;2023-02-13T16:38:28;3.20;99.90
4840;DHT22;2434;48.486;7.964;2023-02-13T16:40:57;3.20;99.90
4840;DHT22;2434;48.486;7.964;2023-02-13T16:43:44;3.30;99.90
4840;DHT22;2434;48.486;7.964;2023-02-13T16:46:21;3.40;99.90
4840;DHT22;2434;48.486;7.964;2023-02-13T16:49:18;3.30;99.90
4840;DHT22;2434;48.486;7.964;2023-02-13T16:51:50;3.30;99.90
4840;DHT22;2434;48.486;7.964;2023-02-13T16:54:30;3.20;99.90
4840;DHT22;2434;48.486;7.964;2023-02-13T16:57:01;3.20;99.90
4840;DHT22;2434;48.486;7.964;2023-02-13T16:59:57;3.50;99.90
4840;DHT22;2434;48.486;7.964;2023-02-13T17:02:26;3.70;99.90
4840;DHT22;2434;48.486;7.964;2023-02-13T17:04:57;3.70;99.90
4840;DHT22;2434;48.486;7.964;2023-02-13T17:07:30;3.60;99.90
4840;DHT22;2434;48.486;7.964;2023-02-13T17:10:03;3.70;99.90
4840;DHT22;2434;48.486;7.964;2023-02-13T17:12:35;3.80;99.90
4840;DHT22;2434;48.486;7.964;2023-02-13T17:15:09;4.00;99.90
4840;DHT22;2434;48.486;7.964;2023-02-13T17:17:39;4.00;98.50
4840;DHT22;2434;48.486;7.964;2023-02-13T17:20:14;4.10;96.80
4840;DHT22;2434;48.486;7.964;2023-02-13T17:22:44;4.10;94.60
4840;DHT22;2434;48.486;7.964;2023-02-13T17:25:17;4.10;94.20
4840;DHT22;2434;48.486;7.964;2023-02-13T17:27:48;4.00;95.00
4840;DHT22;2434;48.486;7.964;2023-02-13T17:30:18;4.00;95.60
4840;DHT22;2434;48.486;7.964;2023-02-13T17:32:48;3.40;97.00
4840;DHT22;2434;48.486;7.964;2023-02-13T17:35:18;3.40;99.90
4840;DHT22;2434;48.486;7.964;2023-02-13T17:37:46;3.60;99.90
4840;DHT22;2434;48.486;7.964;2023-02-13T17:40:15;3.80;98.90
4840;DHT22;2434;48.486;7.964;2023-02-13T17:42:45;4.00;96.60
4840;DHT22;2434;48.486;7.964;2023-02-13T17:45:15;4.00;94.70
4840;DHT22;2434;48.486;7.964;2023-02-13T17:47:44;4.10;93.50
4840;DHT22;2434;48.486;7.964;2023-02-13T17:50:13;4.20;92.60